sensor_id;sensor_type;location;lat;lon;timestamp;pressure;altitude;pressure_sealevel;temperature;humidity
61908;BME280;47864;52.526;19.672;2023-07-20T00:01:47;153663.50;;;18.61;100.00
61908;BME280;47864;52.526;19.672;2023-07-20T00:03:49;153678.81;;;18.68;100.00
61908;BME280;47864;52.526;19.672;2023-07-20T00:05:51;153671.16;;;18.65;100.00
61908;BME280;47864;52.526;19.672;2023-07-20T00:07:53;153638.06;;;18.51;100.00
61908;BME280;47864;52.526;19.672;2023-07-20T00:09:54;153621.50;;;18.45;100.00
61908;BME280;47864;52.526;19.672;2023-07-20T00:11:56;153635.53;;;18.50;100.00
61908;BME280;47864;52.526;19.672;2023-07-20T00:13:57;153599.97;;;18.36;100.00
61908;BME280;47864;52.526;19.672;2023-07-20T00:15:59;153574.53;;;18.26;100.00
61908;BME280;47864;52.526;19.672;2023-07-20T00:18:00;153588.50;;;18.32;100.00
61908;BME280;47864;52.526;19.672;2023-07-20T00:20:02;153580.84;;;18.29;100.00
61908;BME280;47864;52.526;19.672;2023-07-20T00:22:04;153589.75;;;18.32;100.00
61908;BME280;47864;52.526;19.672;2023-07-20T00:24:06;153583.38;;;18.30;100.00
61908;BME280;47864;52.526;19.672;2023-07-20T00:26:07;153568.16;;;18.23;100.00
61908;BME280;47864;52.526;19.672;2023-07-20T00:28:09;153565.59;;;18.22;100.00
61908;BME280;47864;52.526;19.672;2023-07-20T00:30:11;153579.63;;;18.28;100.00
61908;BME280;47864;52.526;19.672;2023-07-20T00:32:13;153550.38;;;18.16;100.00
61908;BME280;47864;52.526;19.672;2023-07-20T00:34:14;153545.28;;;18.14;100.00
61908;BME280;47864;52.526;19.672;2023-07-20T00:36:16;153551.63;;;18.17;100.00
61908;BME280;47864;52.526;19.672;2023-07-20T00:38:17;153523.66;;;18.06;100.00
61908;BME280;47864;52.526;19.672;2023-07-20T00:40:19;153508.44;;;18.00;100.00
61908;BME280;47864;52.526;19.672;2023-07-20T00:42:20;153499.50;;;17.96;100.00
61908;BME280;47864;52.526;19.672;2023-07-20T00:44:22;153509.72;;;18.00;100.00
61908;BME280;47864;52.526;19.672;2023-07-20T00:46:24;153498.25;;;17.96;100.00
61908;BME280;47864;52.526;19.672;2023-07-20T00:48:26;153493.19;;;17.94;100.00
61908;BME280;47864;52.526;19.672;2023-07-20T00:50:29;153471.59;;;17.85;100.00
61908;BME280;47864;52.526;19.672;2023-07-20T00:52:30;153469.03;;;17.84;100.00
61908;BME280;47864;52.526;19.672;2023-07-20T00:54:32;153457.59;;;17.79;100.00
61908;BME280;47864;52.526;19.672;2023-07-20T00:56:35;153441.06;;;17.73;100.00
61908;BME280;47864;52.526;19.672;2023-07-20T00:58:37;153437.25;;;17.71;100.00
61908;BME280;47864;52.526;19.672;2023-07-20T01:00:39;153455.09;;;17.78;100.00
61908;BME280;47864;52.526;19.672;2023-07-20T01:02:40;153430.94;;;17.69;100.00
61908;BME280;47864;52.526;19.672;2023-07-20T01:04:42;153396.56;;;17.55;100.00
61908;BME280;47864;52.526;19.672;2023-07-20T01:06:57;153424.56;;;17.66;100.00
61908;BME280;47864;52.526;19.672;2023-07-20T01:09:15;153427.13;;;17.67;100.00
61908;BME280;47864;52.526;19.672;2023-07-20T01:13:29;153419.47;;;17.64;100.00
61908;BME280;47864;52.526;19.672;2023-07-20T01:15:31;153430.94;;;17.69;100.00
61908;BME280;47864;52.526;19.672;2023-07-20T01:17:35;153444.91;;;17.74;100.00
61908;BME280;47864;52.526;19.672;2023-07-20T01:19:37;153442.34;;;17.73;100.00
61908;BME280;47864;52.526;19.672;2023-07-20T01:24:48;153430.94;;;17.69;100.00
61908;BME280;47864;52.526;19.672;2023-07-20T01:27:11;153425.84;;;17.67;100.00
61908;BME280;47864;52.526;19.672;2023-07-20T01:29:31;153457.59;;;17.79;100.00
61908;BME280;47864;52.526;19.672;2023-07-20T01:31:38;153429.66;;;17.68;100.00
61908;BME280;47864;52.526;19.672;2023-07-20T01:33:41;153391.50;;;17.53;100.00
61908;BME280;47864;52.526;19.672;2023-07-20T01:35:45;153399.09;;;17.56;100.00
61908;BME280;47864;52.526;19.672;2023-07-20T01:37:47;153391.50;;;17.53;100.00
61908;BME280;47864;52.526;19.672;2023-07-20T01:39:50;153357.19;;;17.39;100.00
61908;BME280;47864;52.526;19.672;2023-07-20T01:41:51;153324.19;;;17.26;100.00
61908;BME280;47864;52.526;19.672;2023-07-20T01:43:57;153322.91;;;17.26;100.00
61908;BME280;47864;52.526;19.672;2023-07-20T01:45:59;153330.53;;;17.29;100.00
61908;BME280;47864;52.526;19.672;2023-07-20T01:48:00;153378.78;;;17.48;100.00
61908;BME280;47864;52.526;19.672;2023-07-20T01:50:02;153395.28;;;17.55;100.00
61908;BME280;47864;52.526;19.672;2023-07-20T01:52:04;153422.03;;;17.65;100.00
61908;BME280;47864;52.526;19.672;2023-07-20T01:54:06;153442.34;;;17.73;100.00
61908;BME280;47864;52.526;19.672;2023-07-20T01:56:07;153465.22;;;17.82;100.00
61908;BME280;47864;52.526;19.672;2023-07-20T01:58:09;153422.03;;;17.65;100.00
61908;BME280;47864;52.526;19.672;2023-07-20T02:00:11;153373.69;;;17.46;100.00
61908;BME280;47864;52.526;19.672;2023-07-20T02:02:13;153305.13;;;17.19;100.00
61908;BME280;47864;52.526;19.672;2023-07-20T02:04:14;153322.91;;;17.26;100.00
61908;BME280;47864;52.526;19.672;2023-07-20T02:06:16;153227.69;;;16.88;100.00
61908;BME280;47864;52.526;19.672;2023-07-20T02:08:18;153234.00;;;16.90;100.00
61908;BME280;47864;52.526;19.672;2023-07-20T02:10:19;153183.25;;;16.70;100.00
61908;BME280;47864;52.526;19.672;2023-07-20T02:12:21;153225.13;;;16.87;100.00
61908;BME280;47864;52.526;19.672;2023-07-20T02:14:22;153246.72;;;16.95;100.00
61908;BME280;47864;52.526;19.672;2023-07-20T02:16:24;153287.38;;;17.11;100.00
61908;BME280;47864;52.526;19.672;2023-07-20T02:18:26;153314.00;;;17.22;100.00
61908;BME280;47864;52.526;19.672;2023-07-20T02:20:28;153326.72;;;17.27;100.00
61908;BME280;47864;52.526;19.672;2023-07-20T02:22:30;153338.13;;;17.32;100.00
61908;BME280;47864;52.526;19.672;2023-07-20T02:24:33;153369.91;;;17.44;100.00
61908;BME280;47864;52.526;19.672;2023-07-20T02:26:34;153341.94;;;17.33;100.00
61908;BME280;47864;52.526;19.672;2023-07-20T02:28:36;153345.78;;;17.35;100.00
61908;BME280;47864;52.526;19.672;2023-07-20T02:30:38;153345.78;;;17.35;100.00
61908;BME280;47864;52.526;19.672;2023-07-20T02:32:39;153349.59;;;17.36;100.00
61908;BME280;47864;52.526;19.672;2023-07-20T02:34:41;153376.22;;;17.47;100.00
61908;BME280;47864;52.526;19.672;2023-07-20T02:36:43;153366.09;;;17.43;100.00
61908;BME280;47864;52.526;19.672;2023-07-20T02:38:44;153297.50;;;17.16;100.00
61908;BME280;47864;52.526;19.672;2023-07-20T02:40:46;153260.69;;;17.01;100.00
61908;BME280;47864;52.526;19.672;2023-07-20T02:42:47;153254.31;;;16.98;100.00
61908;BME280;47864;52.526;19.672;2023-07-20T02:44:49;153292.41;;;17.13;100.00
61908;BME280;47864;52.526;19.672;2023-07-20T02:46:51;153261.94;;;17.01;100.00
61908;BME280;47864;52.526;19.672;2023-07-20T02:48:52;153259.41;;;17.00;100.00
61908;BME280;47864;52.526;19.672;2023-07-20T02:50:54;153236.53;;;16.91;100.00
61908;BME280;47864;52.526;19.672;2023-07-20T02:52:55;153237.81;;;16.92;100.00
61908;BME280;47864;52.526;19.672;2023-07-20T02:54:57;153235.28;;;16.91;100.00
61908;BME280;47864;52.526;19.672;2023-07-20T02:56:58;153173.06;;;16.66;100.00
61908;BME280;47864;52.526;19.672;2023-07-20T02:59:01;153175.59;;;16.67;100.00
61908;BME280;47864;52.526;19.672;2023-07-20T03:01:03;153189.56;;;16.72;100.00
61908;BME280;47864;52.526;19.672;2023-07-20T03:03:04;153165.47;;;16.63;100.00
61908;BME280;47864;52.526;19.672;2023-07-20T03:05:06;153195.91;;;16.75;100.00
61908;BME280;47864;52.526;19.672;2023-07-20T03:07:09;153198.47;;;16.76;100.00
61908;BME280;47864;52.526;19.672;2023-07-20T03:09:10;153141.28;;;16.53;100.00
61908;BME280;47864;52.526;19.672;2023-07-20T03:11:13;153107.00;;;16.40;100.00
61908;BME280;47864;52.526;19.672;2023-07-20T03:13:14;153103.22;;;16.38;100.00
61908;BME280;47864;52.526;19.672;2023-07-20T03:15:16;153100.69;;;16.37;100.00
61908;BME280;47864;52.526;19.672;2023-07-20T03:17:17;153090.50;;;16.33;100.00
61908;BME280;47864;52.526;19.672;2023-07-20T03:19:19;153104.50;;;16.39;100.00
61908;BME280;47864;52.526;19.672;2023-07-20T03:21:21;153089.22;;;16.32;100.00
61908;BME280;47864;52.526;19.672;2023-07-20T03:23:22;153123.53;;;16.46;100.00
61908;BME280;47864;52.526;19.672;2023-07-20T03:25:24;153110.81;;;16.41;100.00
61908;BME280;47864;52.526;19.672;2023-07-20T03:27:29;153122.25;;;16.46;100.00
61908;BME280;47864;52.526;19.672;2023-07-20T03:29:31;153129.84;;;16.49;100.00
61908;BME280;47864;52.526;19.672;2023-07-20T03:31:33;153136.19;;;16.51;100.00
61908;BME280;47864;52.526;19.672;2023-07-20T03:33:35;153114.63;;;16.43;100.00
61908;BME280;47864;52.526;19.672;2023-07-20T03:35:36;153131.13;;;16.49;100.00
61908;BME280;47864;52.526;19.672;2023-07-20T03:37:38;153122.25;;;16.46;100.00
61908;BME280;47864;52.526;19.672;2023-07-20T03:39:39;153164.19;;;16.62;100.00
61908;BME280;47864;52.526;19.672;2023-07-20T03:41:41;153155.25;;;16.59;100.00
61908;BME280;47864;52.526;19.672;2023-07-20T03:43:43;153141.28;;;16.53;100.00
61908;BME280;47864;52.526;19.672;2023-07-20T03:45:44;153107.00;;;16.40;100.00
61908;BME280;47864;52.526;19.672;2023-07-20T03:47:46;153107.00;;;16.40;100.00
61908;BME280;47864;52.526;19.672;2023-07-20T03:49:48;153074.00;;;16.26;100.00
61908;BME280;47864;52.526;19.672;2023-07-20T03:51:49;153048.59;;;16.16;100.00
61908;BME280;47864;52.526;19.672;2023-07-20T03:53:51;153062.59;;;16.22;100.00
61908;BME280;47864;52.526;19.672;2023-07-20T03:55:53;153033.41;;;16.10;100.00
61908;BME280;47864;52.526;19.672;2023-07-20T03:57:54;153070.19;;;16.25;100.00
61908;BME280;47864;52.526;19.672;2023-07-20T03:59:56;153082.91;;;16.30;100.00
61908;BME280;47864;52.526;19.672;2023-07-20T04:01:58;153120.97;;;16.45;100.00
61908;BME280;47864;52.526;19.672;2023-07-20T04:03:59;153146.38;;;16.55;100.00
61908;BME280;47864;52.526;19.672;2023-07-20T04:06:01;153188.28;;;16.72;100.00
61908;BME280;47864;52.526;19.672;2023-07-20T04:08:03;153211.13;;;16.81;100.00
61908;BME280;47864;52.526;19.672;2023-07-20T04:10:05;153226.41;;;16.87;100.00
61908;BME280;47864;52.526;19.672;2023-07-20T04:12:07;153250.50;;;16.97;100.00
61908;BME280;47864;52.526;19.672;2023-07-20T04:14:08;153231.44;;;16.89;100.00
61908;BME280;47864;52.526;19.672;2023-07-20T04:16:10;153226.41;;;16.87;100.00
61908;BME280;47864;52.526;19.672;2023-07-20T04:18:12;153239.09;;;16.92;100.00
61908;BME280;47864;52.526;19.672;2023-07-20T04:20:13;153245.44;;;16.95;100.00
61908;BME280;47864;52.526;19.672;2023-07-20T04:22:15;153248.00;;;16.96;100.00
61908;BME280;47864;52.526;19.672;2023-07-20T04:24:18;153235.28;;;16.91;100.00
61908;BME280;47864;52.526;19.672;2023-07-20T04:26:19;153249.28;;;16.96;100.00
61908;BME280;47864;52.526;19.672;2023-07-20T04:28:21;153250.50;;;16.97;100.00
61908;BME280;47864;52.526;19.672;2023-07-20T04:30:23;153234.00;;;16.90;100.00
61908;BME280;47864;52.526;19.672;2023-07-20T04:32:25;153213.69;;;16.82;100.00
61908;BME280;47864;52.526;19.672;2023-07-20T04:34:27;153217.50;;;16.84;100.00
61908;BME280;47864;52.526;19.672;2023-07-20T04:36:28;153180.69;;;16.69;100.00
61908;BME280;47864;52.526;19.672;2023-07-20T04:38:30;153166.75;;;16.63;100.00
61908;BME280;47864;52.526;19.672;2023-07-20T04:40:31;153167.97;;;16.64;100.00
61908;BME280;47864;52.526;19.672;2023-07-20T04:42:33;153165.47;;;16.63;100.00
61908;BME280;47864;52.526;19.672;2023-07-20T04:44:35;153157.78;;;16.60;100.00
61908;BME280;47864;52.526;19.672;2023-07-20T04:46:36;153157.78;;;16.60;100.00
61908;BME280;47864;52.526;19.672;2023-07-20T04:48:38;153161.66;;;16.61;100.00
61908;BME280;47864;52.526;19.672;2023-07-20T04:50:40;153161.66;;;16.61;100.00
61908;BME280;47864;52.526;19.672;2023-07-20T04:52:42;153180.69;;;16.69;100.00
61908;BME280;47864;52.526;19.672;2023-07-20T04:54:44;153216.22;;;16.83;100.00
61908;BME280;47864;52.526;19.672;2023-07-20T04:56:45;153241.63;;;16.93;100.00
61908;BME280;47864;52.526;19.672;2023-07-20T04:58:51;153282.28;;;17.09;100.00
61908;BME280;47864;52.526;19.672;2023-07-20T05:00:53;153300.03;;;17.17;100.00
61908;BME280;47864;52.526;19.672;2023-07-20T05:02:54;153306.41;;;17.19;100.00
61908;BME280;47864;52.526;19.672;2023-07-20T05:04:56;153331.81;;;17.29;100.00
61908;BME280;47864;52.526;19.672;2023-07-20T05:06:58;153345.78;;;17.35;100.00
61908;BME280;47864;52.526;19.672;2023-07-20T05:08:59;153340.69;;;17.33;100.00
61908;BME280;47864;52.526;19.672;2023-07-20T05:11:01;153378.78;;;17.48;100.00
61908;BME280;47864;52.526;19.672;2023-07-20T05:13:03;153357.19;;;17.39;100.00
61908;BME280;47864;52.526;19.672;2023-07-20T05:15:04;153381.31;;;17.49;100.00
61908;BME280;47864;52.526;19.672;2023-07-20T05:17:06;153394.06;;;17.54;100.00
61908;BME280;47864;52.526;19.672;2023-07-20T05:19:08;153376.22;;;17.47;100.00
61908;BME280;47864;52.526;19.672;2023-07-20T05:21:09;153373.69;;;17.46;100.00
61908;BME280;47864;52.526;19.672;2023-07-20T05:23:11;153381.31;;;17.49;100.00
61908;BME280;47864;52.526;19.672;2023-07-20T05:25:13;153435.97;;;17.71;100.00
61908;BME280;47864;52.526;19.672;2023-07-20T05:27:14;153439.81;;;17.72;100.00
61908;BME280;47864;52.526;19.672;2023-07-20T05:29:16;153442.34;;;17.73;100.00
61908;BME280;47864;52.526;19.672;2023-07-20T05:31:18;153429.66;;;17.68;100.00
61908;BME280;47864;52.526;19.672;2023-07-20T05:33:20;153442.34;;;17.73;100.00
61908;BME280;47864;52.526;19.672;2023-07-20T05:35:22;153425.84;;;17.67;100.00
61908;BME280;47864;52.526;19.672;2023-07-20T05:37:24;153433.47;;;17.70;100.00
61908;BME280;47864;52.526;19.672;2023-07-20T05:39:26;153423.28;;;17.66;100.00
61908;BME280;47864;52.526;19.672;2023-07-20T05:41:27;153373.69;;;17.46;100.00
61908;BME280;47864;52.526;19.672;2023-07-20T05:43:29;153396.56;;;17.55;100.00
61908;BME280;47864;52.526;19.672;2023-07-20T05:45:31;153363.56;;;17.42;100.00
61908;BME280;47864;52.526;19.672;2023-07-20T05:47:32;153344.50;;;17.34;100.00
61908;BME280;47864;52.526;19.672;2023-07-20T05:49:35;153317.81;;;17.24;100.00
61908;BME280;47864;52.526;19.672;2023-07-20T05:51:36;153349.59;;;17.36;100.00
61908;BME280;47864;52.526;19.672;2023-07-20T05:53:38;153378.78;;;17.48;100.00
61908;BME280;47864;52.526;19.672;2023-07-20T05:55:40;153358.47;;;17.40;100.00
61908;BME280;47864;52.526;19.672;2023-07-20T05:57:41;153361.00;;;17.41;100.00
61908;BME280;47864;52.526;19.672;2023-07-20T05:59:43;153338.13;;;17.32;100.00
61908;BME280;47864;52.526;19.672;2023-07-20T06:01:45;153314.00;;;17.22;100.00
61908;BME280;47864;52.526;19.672;2023-07-20T06:03:47;153328.00;;;17.28;100.00
61908;BME280;47864;52.526;19.672;2023-07-20T06:05:48;153409.28;;;17.60;100.00
61908;BME280;47864;52.526;19.672;2023-07-20T06:07:50;153416.94;;;17.63;100.00
61908;BME280;47864;52.526;19.672;2023-07-20T06:09:52;153383.88;;;17.50;100.00
61908;BME280;47864;52.526;19.672;2023-07-20T06:11:53;153367.38;;;17.43;100.00
61908;BME280;47864;52.526;19.672;2023-07-20T06:13:56;153352.13;;;17.37;100.00
61908;BME280;47864;52.526;19.672;2023-07-20T06:15:58;153372.47;;;17.45;100.00
61908;BME280;47864;52.526;19.672;2023-07-20T06:18:00;153376.22;;;17.47;100.00
61908;BME280;47864;52.526;19.672;2023-07-20T06:20:01;153406.75;;;17.59;100.00
61908;BME280;47864;52.526;19.672;2023-07-20T06:22:03;153441.06;;;17.73;100.00
61908;BME280;47864;52.526;19.672;2023-07-20T06:24:05;153405.47;;;17.59;100.00
61908;BME280;47864;52.526;19.672;2023-07-20T06:26:07;153336.84;;;17.31;100.00
61908;BME280;47864;52.526;19.672;2023-07-20T06:28:08;153320.38;;;17.25;100.00
61908;BME280;47864;52.526;19.672;2023-07-20T06:30:10;153284.81;;;17.10;100.00
61908;BME280;47864;52.526;19.672;2023-07-20T06:32:11;153317.81;;;17.24;100.00
61908;BME280;47864;52.526;19.672;2023-07-20T06:34:13;153352.13;;;17.37;100.00
61908;BME280;47864;52.526;19.672;2023-07-20T06:36:17;153343.22;;;17.34;100.00
61908;BME280;47864;52.526;19.672;2023-07-20T06:38:19;153363.56;;;17.42;100.00
61908;BME280;47864;52.526;19.672;2023-07-20T06:40:24;153359.72;;;17.40;100.00
61908;BME280;47864;52.526;19.672;2023-07-20T06:42:28;153340.69;;;17.33;100.00
61908;BME280;47864;52.526;19.672;2023-07-20T06:44:50;153383.88;;;17.50;100.00
61908;BME280;47864;52.526;19.672;2023-07-20T06:46:51;153374.97;;;17.46;100.00
61908;BME280;47864;52.526;19.672;2023-07-20T06:48:53;153374.97;;;17.46;100.00
61908;BME280;47864;52.526;19.672;2023-07-20T06:50:58;153371.19;;;17.45;100.00
61908;BME280;47864;52.526;19.672;2023-07-20T06:52:59;153349.59;;;17.36;100.00
61908;BME280;47864;52.526;19.672;2023-07-20T06:55:01;153338.13;;;17.32;100.00
61908;BME280;47864;52.526;19.672;2023-07-20T06:57:06;153338.13;;;17.32;100.00
61908;BME280;47864;52.526;19.672;2023-07-20T06:59:10;153308.94;;;17.20;100.00
61908;BME280;47864;52.526;19.672;2023-07-20T07:01:13;153297.50;;;17.16;100.00
61908;BME280;47864;52.526;19.672;2023-07-20T07:03:15;153272.09;;;17.05;100.00
61908;BME280;47864;52.526;19.672;2023-07-20T07:05:17;153317.81;;;17.24;100.00
61908;BME280;47864;52.526;19.672;2023-07-20T07:07:22;153329.28;;;17.28;100.00
61908;BME280;47864;52.526;19.672;2023-07-20T07:09:27;153321.63;;;17.25;100.00
61908;BME280;47864;52.526;19.672;2023-07-20T07:11:29;153335.59;;;17.31;100.00
61908;BME280;47864;52.526;19.672;2023-07-20T07:13:30;153336.84;;;17.31;100.00
61908;BME280;47864;52.526;19.672;2023-07-20T07:15:33;153326.72;;;17.27;100.00
61908;BME280;47864;52.526;19.672;2023-07-20T07:17:34;153321.63;;;17.25;100.00
61908;BME280;47864;52.526;19.672;2023-07-20T07:19:36;153291.13;;;17.13;100.00
61908;BME280;47864;52.526;19.672;2023-07-20T07:21:38;153277.19;;;17.07;100.00
61908;BME280;47864;52.526;19.672;2023-07-20T07:23:40;153283.53;;;17.10;100.00
61908;BME280;47864;52.526;19.672;2023-07-20T07:25:42;153287.38;;;17.11;100.00
61908;BME280;47864;52.526;19.672;2023-07-20T07:27:43;153286.09;;;17.11;100.00
61908;BME280;47864;52.526;19.672;2023-07-20T07:29:45;153338.13;;;17.32;100.00
61908;BME280;47864;52.526;19.672;2023-07-20T07:31:46;153303.84;;;17.18;100.00
61908;BME280;47864;52.526;19.672;2023-07-20T07:33:48;153275.91;;;17.07;100.00
61908;BME280;47864;52.526;19.672;2023-07-20T07:35:51;153178.16;;;16.68;100.00
61908;BME280;47864;52.526;19.672;2023-07-20T07:37:52;153192.09;;;16.73;100.00
61908;BME280;47864;52.526;19.672;2023-07-20T07:40:14;153237.81;;;16.92;100.00
61908;BME280;47864;52.526;19.672;2023-07-20T07:42:15;153284.81;;;17.10;100.00
61908;BME280;47864;52.526;19.672;2023-07-20T07:44:17;153272.09;;;17.05;100.00
61908;BME280;47864;52.526;19.672;2023-07-20T07:46:19;153249.28;;;16.96;100.00
61908;BME280;47864;52.526;19.672;2023-07-20T07:48:21;153254.31;;;16.98;100.00
61908;BME280;47864;52.526;19.672;2023-07-20T07:50:23;153274.63;;;17.06;100.00
61908;BME280;47864;52.526;19.672;2023-07-20T07:52:25;153270.81;;;17.05;100.00
61908;BME280;47864;52.526;19.672;2023-07-20T07:54:26;153255.59;;;16.99;100.00
61908;BME280;47864;52.526;19.672;2023-07-20T07:56:28;153253.03;;;16.98;100.00
61908;BME280;47864;52.526;19.672;2023-07-20T07:58:29;153261.94;;;17.01;100.00
61908;BME280;47864;52.526;19.672;2023-07-20T08:00:31;153282.28;;;17.09;100.00
61908;BME280;47864;52.526;19.672;2023-07-20T08:02:32;153300.03;;;17.17;100.00
61908;BME280;47864;52.526;19.672;2023-07-20T08:04:34;153324.19;;;17.26;100.00
61908;BME280;47864;52.526;19.672;2023-07-20T08:06:36;153349.59;;;17.36;100.00
61908;BME280;47864;52.526;19.672;2023-07-20T08:08:37;153399.09;;;17.56;100.00
61908;BME280;47864;52.526;19.672;2023-07-20T08:10:39;153380.06;;;17.48;100.00
61908;BME280;47864;52.526;19.672;2023-07-20T08:12:40;153461.41;;;17.81;100.00
61908;BME280;47864;52.526;19.672;2023-07-20T08:14:42;153510.97;;;18.01;100.00
61908;BME280;47864;52.526;19.672;2023-07-20T08:16:44;153564.34;;;18.22;100.00
61908;BME280;47864;52.526;19.672;2023-07-20T08:18:45;153584.66;;;18.30;100.00
61908;BME280;47864;52.526;19.672;2023-07-20T08:20:47;153608.81;;;18.40;100.00
61908;BME280;47864;52.526;19.672;2023-07-20T08:22:49;153632.97;;;18.49;100.00
61908;BME280;47864;52.526;19.672;2023-07-20T08:24:50;153629.16;;;18.48;100.00
61908;BME280;47864;52.526;19.672;2023-07-20T08:26:52;153569.44;;;18.24;100.00
61908;BME280;47864;52.526;19.672;2023-07-20T08:28:53;153514.81;;;18.02;100.00
61908;BME280;47864;52.526;19.672;2023-07-20T08:30:55;153510.97;;;18.01;100.00
61908;BME280;47864;52.526;19.672;2023-07-20T08:32:57;153550.38;;;18.16;100.00
61908;BME280;47864;52.526;19.672;2023-07-20T08:34:58;153527.47;;;18.07;100.00
61908;BME280;47864;52.526;19.672;2023-07-20T08:37:00;153569.44;;;18.24;100.00
61908;BME280;47864;52.526;19.672;2023-07-20T08:39:01;153632.97;;;18.49;100.00
61908;BME280;47864;52.526;19.672;2023-07-20T08:41:03;153783.06;;;19.09;100.00
61908;BME280;47864;52.526;19.672;2023-07-20T08:43:04;153902.66;;;19.57;100.00
61908;BME280;47864;52.526;19.672;2023-07-20T08:45:08;153910.31;;;19.60;100.00
61908;BME280;47864;52.526;19.672;2023-07-20T08:47:10;153882.31;;;19.49;100.00
61908;BME280;47864;52.526;19.672;2023-07-20T08:49:15;153819.94;;;19.24;100.00
61908;BME280;47864;52.526;19.672;2023-07-20T08:51:18;153795.75;;;19.14;100.00
61908;BME280;47864;52.526;19.672;2023-07-20T08:53:21;153896.28;;;19.54;100.00
61908;BME280;47864;52.526;19.672;2023-07-20T08:55:23;153994.22;;;19.93;100.00
61908;BME280;47864;52.526;19.672;2023-07-20T08:57:25;153917.91;;;19.63;100.00
61908;BME280;47864;52.526;19.672;2023-07-20T08:59:28;154043.88;;;20.13;100.00
61908;BME280;47864;52.526;19.672;2023-07-20T09:01:31;154217.03;;;20.82;100.00
61908;BME280;47864;52.526;19.672;2023-07-20T09:03:33;154219.59;;;20.83;100.00
61908;BME280;47864;52.526;19.672;2023-07-20T09:05:35;154239.94;;;20.91;100.00
61908;BME280;47864;52.526;19.672;2023-07-20T09:07:38;154290.84;;;21.11;100.00
61908;BME280;47864;52.526;19.672;2023-07-20T09:09:40;154251.38;;;20.96;100.00
61908;BME280;47864;52.526;19.672;2023-07-20T09:11:44;154310.00;;;21.19;100.00
61908;BME280;47864;52.526;19.672;2023-07-20T09:13:47;154406.81;;;21.57;100.00
61908;BME280;47864;52.526;19.672;2023-07-20T09:15:53;154532.94;;;22.08;100.00
61908;BME280;47864;52.526;19.672;2023-07-20T09:17:55;154554.59;;;22.16;100.00
61908;BME280;47864;52.526;19.672;2023-07-20T09:19:57;154596.66;;;22.33;100.00
61908;BME280;47864;52.526;19.672;2023-07-20T09:21:58;154494.69;;;21.92;100.00
61908;BME280;47864;52.526;19.672;2023-07-20T09:24:00;154529.16;;;22.06;100.00
61908;BME280;47864;52.526;19.672;2023-07-20T09:26:19;154508.78;;;21.98;100.00
61908;BME280;47864;52.526;19.672;2023-07-20T09:28:21;154490.84;;;21.91;100.00
61908;BME280;47864;52.526;19.672;2023-07-20T09:30:26;154554.59;;;22.16;100.00
61908;BME280;47864;52.526;19.672;2023-07-20T09:32:31;154628.53;;;22.46;100.00
61908;BME280;47864;52.526;19.672;2023-07-20T09:34:35;154629.81;;;22.46;100.00
61908;BME280;47864;52.526;19.672;2023-07-20T09:36:41;154503.63;;;21.96;100.00
61908;BME280;47864;52.526;19.672;2023-07-20T09:38:45;154353.31;;;21.36;100.00
61908;BME280;47864;52.526;19.672;2023-07-20T09:40:50;154358.41;;;21.38;100.00
61908;BME280;47864;52.526;19.672;2023-07-20T09:42:55;154489.63;;;21.90;100.00
61908;BME280;47864;52.526;19.672;2023-07-20T09:44:59;154594.09;;;22.32;100.00
61908;BME280;47864;52.526;19.672;2023-07-20T09:47:03;154646.38;;;22.53;99.45
61908;BME280;47864;52.526;19.672;2023-07-20T09:49:08;154676.94;;;22.65;100.00
61908;BME280;47864;52.526;19.672;2023-07-20T09:51:13;154625.97;;;22.45;95.11
61908;BME280;47864;52.526;19.672;2023-07-20T09:53:14;154722.88;;;22.83;99.46
61908;BME280;47864;52.526;19.672;2023-07-20T09:55:16;154762.38;;;22.99;100.00
61908;BME280;47864;52.526;19.672;2023-07-20T09:57:18;154606.88;;;22.37;100.00
61908;BME280;47864;52.526;19.672;2023-07-20T09:59:20;154614.53;;;22.40;100.00
61908;BME280;47864;52.526;19.672;2023-07-20T10:01:23;154654.03;;;22.56;100.00
61908;BME280;47864;52.526;19.672;2023-07-20T10:03:29;154796.84;;;23.12;99.33
61908;BME280;47864;52.526;19.672;2023-07-20T10:05:38;154807.03;;;23.17;93.32
61908;BME280;47864;52.526;19.672;2023-07-20T10:07:47;154868.22;;;23.41;96.14
61908;BME280;47864;52.526;19.672;2023-07-20T10:09:51;154893.78;;;23.51;92.03
61908;BME280;47864;52.526;19.672;2023-07-20T10:11:53;154915.47;;;23.60;97.73
61908;BME280;47864;52.526;19.672;2023-07-20T10:14:18;154815.97;;;23.20;94.22
61908;BME280;47864;52.526;19.672;2023-07-20T10:16:29;154859.31;;;23.37;94.70
61908;BME280;47864;52.526;19.672;2023-07-20T10:18:46;154980.50;;;23.85;86.75
61908;BME280;47864;52.526;19.672;2023-07-20T10:20:53;154776.44;;;23.04;85.15
61908;BME280;47864;52.526;19.672;2023-07-20T10:22:59;154618.31;;;22.42;96.17
61908;BME280;47864;52.526;19.672;2023-07-20T10:25:01;154534.22;;;22.08;91.40
61908;BME280;47864;52.526;19.672;2023-07-20T10:27:04;154419.53;;;21.62;100.00
61908;BME280;47864;52.526;19.672;2023-07-20T10:29:06;154388.94;;;21.50;98.21
61908;BME280;47864;52.526;19.672;2023-07-20T10:31:09;154475.56;;;21.85;97.28